sensor_id;sensor_type;location;lat;lon;timestamp;P1;durP1;ratioP1;P2;durP2;ratioP2
76903;SDS011;65865;51.698;-0.292;2023-05-07T00:00:22;1.15;;;0.40;;
76903;SDS011;65865;51.698;-0.292;2023-05-07T00:02:48;1.15;;;0.38;;
76903;SDS011;65865;51.698;-0.292;2023-05-07T00:05:14;0.95;;;0.30;;
76903;SDS011;65865;51.698;-0.292;2023-05-07T00:07:40;0.93;;;0.30;;
76903;SDS011;65865;51.698;-0.292;2023-05-07T00:10:06;0.90;;;0.30;;
76903;SDS011;65865;51.698;-0.292;2023-05-07T00:12:32;1.05;;;0.40;;
76903;SDS011;65865;51.698;-0.292;2023-05-07T00:15:02;0.93;;;0.30;;
76903;SDS011;65865;51.698;-0.292;2023-05-07T00:17:28;1.63;;;0.30;;
76903;SDS011;65865;51.698;-0.292;2023-05-07T00:19:55;1.40;;;0.50;;
76903;SDS011;65865;51.698;-0.292;2023-05-07T00:22:21;1.52;;;0.32;;
76903;SDS011;65865;51.698;-0.292;2023-05-07T00:24:47;1.00;;;0.20;;
76903;SDS011;65865;51.698;-0.292;2023-05-07T00:27:13;0.65;;;0.38;;
76903;SDS011;65865;51.698;-0.292;2023-05-07T00:29:40;1.23;;;0.40;;
76903;SDS011;65865;51.698;-0.292;2023-05-07T00:32:06;0.77;;;0.20;;
76903;SDS011;65865;51.698;-0.292;2023-05-07T00:34:32;1.48;;;0.40;;
76903;SDS011;65865;51.698;-0.292;2023-05-07T00:36:58;1.17;;;0.40;;
76903;SDS011;65865;51.698;-0.292;2023-05-07T00:39:24;1.30;;;0.40;;
76903;SDS011;65865;51.698;-0.292;2023-05-07T00:41:50;1.25;;;0.40;;
76903;SDS011;65865;51.698;-0.292;2023-05-07T00:44:16;1.25;;;0.50;;
76903;SDS011;65865;51.698;-0.292;2023-05-07T00:46:43;0.82;;;0.40;;
76903;SDS011;65865;51.698;-0.292;2023-05-07T00:49:10;1.30;;;0.32;;
76903;SDS011;65865;51.698;-0.292;2023-05-07T00:51:36;1.35;;;0.50;;
76903;SDS011;65865;51.698;-0.292;2023-05-07T00:54:02;1.92;;;0.30;;
76903;SDS011;65865;51.698;-0.292;2023-05-07T00:56:28;2.22;;;0.47;;
76903;SDS011;65865;51.698;-0.292;2023-05-07T00:58:55;1.48;;;0.30;;
76903;SDS011;65865;51.698;-0.292;2023-05-07T01:01:21;3.05;;;0.50;;
76903;SDS011;65865;51.698;-0.292;2023-05-07T01:03:47;1.55;;;0.50;;
76903;SDS011;65865;51.698;-0.292;2023-05-07T01:06:13;1.42;;;0.40;;
76903;SDS011;65865;51.698;-0.292;2023-05-07T01:08:41;1.33;;;0.45;;
76903;SDS011;65865;51.698;-0.292;2023-05-07T01:11:08;1.40;;;0.50;;
76903;SDS011;65865;51.698;-0.292;2023-05-07T01:13:34;1.48;;;0.50;;
76903;SDS011;65865;51.698;-0.292;2023-05-07T01:16:00;1.75;;;0.70;;
76903;SDS011;65865;51.698;-0.292;2023-05-07T01:18:27;1.65;;;0.60;;
76903;SDS011;65865;51.698;-0.292;2023-05-07T01:20:55;1.38;;;0.50;;
76903;SDS011;65865;51.698;-0.292;2023-05-07T01:23:21;1.60;;;0.57;;
76903;SDS011;65865;51.698;-0.292;2023-05-07T01:25:51;1.73;;;0.60;;
76903;SDS011;65865;51.698;-0.292;2023-05-07T01:28:18;1.95;;;0.70;;
76903;SDS011;65865;51.698;-0.292;2023-05-07T01:30:45;2.10;;;0.55;;
76903;SDS011;65865;51.698;-0.292;2023-05-07T01:33:13;1.48;;;0.50;;
76903;SDS011;65865;51.698;-0.292;2023-05-07T01:35:41;3.17;;;0.70;;
76903;SDS011;65865;51.698;-0.292;2023-05-07T01:38:09;2.83;;;0.70;;
76903;SDS011;65865;51.698;-0.292;2023-05-07T01:40:38;1.77;;;0.63;;
76903;SDS011;65865;51.698;-0.292;2023-05-07T01:43:04;1.73;;;0.60;;
76903;SDS011;65865;51.698;-0.292;2023-05-07T01:45:31;1.88;;;0.70;;
76903;SDS011;65865;51.698;-0.292;2023-05-07T01:47:57;1.85;;;0.50;;
76903;SDS011;65865;51.698;-0.292;2023-05-07T01:50:24;1.80;;;0.63;;
76903;SDS011;65865;51.698;-0.292;2023-05-07T01:52:51;1.92;;;0.70;;
76903;SDS011;65865;51.698;-0.292;2023-05-07T01:55:17;1.05;;;0.50;;
76903;SDS011;65865;51.698;-0.292;2023-05-07T01:57:44;1.75;;;0.60;;
76903;SDS011;65865;51.698;-0.292;2023-05-07T02:00:10;1.95;;;0.68;;
76903;SDS011;65865;51.698;-0.292;2023-05-07T02:02:36;2.65;;;0.90;;
76903;SDS011;65865;51.698;-0.292;2023-05-07T02:05:03;1.38;;;0.60;;
76903;SDS011;65865;51.698;-0.292;2023-05-07T02:07:29;2.13;;;0.77;;
76903;SDS011;65865;51.698;-0.292;2023-05-07T02:09:55;1.30;;;0.60;;
76903;SDS011;65865;51.698;-0.292;2023-05-07T02:12:23;1.98;;;0.60;;
76903;SDS011;65865;51.698;-0.292;2023-05-07T02:14:49;3.17;;;0.80;;
76903;SDS011;65865;51.698;-0.292;2023-05-07T02:17:15;2.13;;;0.70;;
76903;SDS011;65865;51.698;-0.292;2023-05-07T02:19:41;2.25;;;0.85;;
76903;SDS011;65865;51.698;-0.292;2023-05-07T02:22:09;1.95;;;0.70;;
76903;SDS011;65865;51.698;-0.292;2023-05-07T02:27:01;1.50;;;0.65;;
76903;SDS011;65865;51.698;-0.292;2023-05-07T02:29:28;1.83;;;0.70;;
76903;SDS011;65865;51.698;-0.292;2023-05-07T02:31:54;2.75;;;0.90;;
76903;SDS011;65865;51.698;-0.292;2023-05-07T02:34:20;1.33;;;0.63;;
76903;SDS011;65865;51.698;-0.292;2023-05-07T02:36:46;3.90;;;0.82;;
76903;SDS011;65865;51.698;-0.292;2023-05-07T02:39:12;2.53;;;0.80;;
76903;SDS011;65865;51.698;-0.292;2023-05-07T02:41:39;2.70;;;0.77;;
76903;SDS011;65865;51.698;-0.292;2023-05-07T02:44:05;3.22;;;0.80;;
76903;SDS011;65865;51.698;-0.292;2023-05-07T02:46:31;1.88;;;0.80;;
76903;SDS011;65865;51.698;-0.292;2023-05-07T02:48:57;1.92;;;0.77;;
76903;SDS011;65865;51.698;-0.292;2023-05-07T02:51:23;2.53;;;0.70;;
76903;SDS011;65865;51.698;-0.292;2023-05-07T02:53:49;1.85;;;0.88;;
76903;SDS011;65865;51.698;-0.292;2023-05-07T02:56:15;2.75;;;0.93;;
76903;SDS011;65865;51.698;-0.292;2023-05-07T02:58:41;2.60;;;0.80;;
76903;SDS011;65865;51.698;-0.292;2023-05-07T03:01:07;2.45;;;0.68;;
76903;SDS011;65865;51.698;-0.292;2023-05-07T03:03:33;2.75;;;1.02;;
76903;SDS011;65865;51.698;-0.292;2023-05-07T03:05:59;2.20;;;0.75;;
76903;SDS011;65865;51.698;-0.292;2023-05-07T03:08:26;2.60;;;1.00;;
76903;SDS011;65865;51.698;-0.292;2023-05-07T03:10:52;2.17;;;0.90;;
76903;SDS011;65865;51.698;-0.292;2023-05-07T03:13:18;1.92;;;0.82;;
76903;SDS011;65865;51.698;-0.292;2023-05-07T03:15:44;2.45;;;0.90;;
76903;SDS011;65865;51.698;-0.292;2023-05-07T03:18:10;2.42;;;0.90;;
76903;SDS011;65865;51.698;-0.292;2023-05-07T03:20:36;2.08;;;0.80;;
76903;SDS011;65865;51.698;-0.292;2023-05-07T03:23:02;2.85;;;1.13;;
76903;SDS011;65865;51.698;-0.292;2023-05-07T03:25:28;1.88;;;0.77;;
76903;SDS011;65865;51.698;-0.292;2023-05-07T03:27:57;2.25;;;1.00;;
76903;SDS011;65865;51.698;-0.292;2023-05-07T03:30:23;2.55;;;1.02;;
76903;SDS011;65865;51.698;-0.292;2023-05-07T03:32:49;2.58;;;1.00;;
76903;SDS011;65865;51.698;-0.292;2023-05-07T03:35:15;2.22;;;0.90;;
76903;SDS011;65865;51.698;-0.292;2023-05-07T03:37:41;2.88;;;1.02;;
76903;SDS011;65865;51.698;-0.292;2023-05-07T03:40:07;2.88;;;1.10;;
76903;SDS011;65865;51.698;-0.292;2023-05-07T03:42:35;2.65;;;1.10;;
76903;SDS011;65865;51.698;-0.292;2023-05-07T03:45:01;1.95;;;0.90;;
76903;SDS011;65865;51.698;-0.292;2023-05-07T03:47:27;2.10;;;0.80;;
76903;SDS011;65865;51.698;-0.292;2023-05-07T03:49:53;2.58;;;1.20;;
76903;SDS011;65865;51.698;-0.292;2023-05-07T03:52:19;1.90;;;0.80;;
76903;SDS011;65865;51.698;-0.292;2023-05-07T03:54:49;2.15;;;1.00;;
76903;SDS011;65865;51.698;-0.292;2023-05-07T03:57:15;2.35;;;0.95;;
76903;SDS011;65865;51.698;-0.292;2023-05-07T03:59:41;2.78;;;1.27;;
76903;SDS011;65865;51.698;-0.292;2023-05-07T04:02:07;2.45;;;1.20;;
76903;SDS011;65865;51.698;-0.292;2023-05-07T04:04:33;2.60;;;0.93;;
76903;SDS011;65865;51.698;-0.292;2023-05-07T04:06:59;2.60;;;1.20;;
76903;SDS011;65865;51.698;-0.292;2023-05-07T04:09:25;2.20;;;0.98;;
76903;SDS011;65865;51.698;-0.292;2023-05-07T04:11:51;3.15;;;1.25;;
76903;SDS011;65865;51.698;-0.292;2023-05-07T04:14:17;2.78;;;0.98;;
76903;SDS011;65865;51.698;-0.292;2023-05-07T04:16:43;2.38;;;1.10;;
76903;SDS011;65865;51.698;-0.292;2023-05-07T04:19:09;2.40;;;1.10;;
76903;SDS011;65865;51.698;-0.292;2023-05-07T04:21:35;2.38;;;0.98;;
76903;SDS011;65865;51.698;-0.292;2023-05-07T04:24:02;2.05;;;1.00;;
76903;SDS011;65865;51.698;-0.292;2023-05-07T04:26:29;2.92;;;1.00;;
76903;SDS011;65865;51.698;-0.292;2023-05-07T04:28:55;2.88;;;1.10;;
76903;SDS011;65865;51.698;-0.292;2023-05-07T04:31:22;2.80;;;1.08;;
76903;SDS011;65865;51.698;-0.292;2023-05-07T04:33:48;2.20;;;0.90;;
76903;SDS011;65865;51.698;-0.292;2023-05-07T04:36:15;2.65;;;1.20;;
76903;SDS011;65865;51.698;-0.292;2023-05-07T04:38:41;2.45;;;0.90;;
76903;SDS011;65865;51.698;-0.292;2023-05-07T04:41:08;2.72;;;1.42;;
76903;SDS011;65865;51.698;-0.292;2023-05-07T04:43:34;2.97;;;1.00;;
76903;SDS011;65865;51.698;-0.292;2023-05-07T04:46:00;2.20;;;0.90;;
76903;SDS011;65865;51.698;-0.292;2023-05-07T04:48:26;3.08;;;0.85;;
76903;SDS011;65865;51.698;-0.292;2023-05-07T04:50:53;1.85;;;0.90;;
76903;SDS011;65865;51.698;-0.292;2023-05-07T04:53:20;2.95;;;1.10;;
76903;SDS011;65865;51.698;-0.292;2023-05-07T04:55:47;1.83;;;0.70;;
76903;SDS011;65865;51.698;-0.292;2023-05-07T04:58:13;2.00;;;0.80;;
76903;SDS011;65865;51.698;-0.292;2023-05-07T05:00:39;3.20;;;0.98;;
76903;SDS011;65865;51.698;-0.292;2023-05-07T05:03:08;2.70;;;1.00;;
76903;SDS011;65865;51.698;-0.292;2023-05-07T05:05:34;2.50;;;0.98;;
76903;SDS011;65865;51.698;-0.292;2023-05-07T05:10:48;2.83;;;0.88;;
76903;SDS011;65865;51.698;-0.292;2023-05-07T05:13:14;2.10;;;1.00;;
76903;SDS011;65865;51.698;-0.292;2023-05-07T05:15:40;2.38;;;0.90;;
76903;SDS011;65865;51.698;-0.292;2023-05-07T05:18:06;2.50;;;1.00;;
76903;SDS011;65865;51.698;-0.292;2023-05-07T05:20:32;2.30;;;1.05;;
76903;SDS011;65865;51.698;-0.292;2023-05-07T05:22:58;1.98;;;0.90;;
76903;SDS011;65865;51.698;-0.292;2023-05-07T05:25:25;1.83;;;0.88;;
76903;SDS011;65865;51.698;-0.292;2023-05-07T05:27:51;2.13;;;0.90;;
76903;SDS011;65865;51.698;-0.292;2023-05-07T05:30:17;2.35;;;0.90;;
76903;SDS011;65865;51.698;-0.292;2023-05-07T05:32:42;1.83;;;0.80;;
76903;SDS011;65865;51.698;-0.292;2023-05-07T05:35:08;1.95;;;0.88;;
76903;SDS011;65865;51.698;-0.292;2023-05-07T05:37:34;2.17;;;0.93;;
76903;SDS011;65865;51.698;-0.292;2023-05-07T05:40:01;2.47;;;0.85;;
76903;SDS011;65865;51.698;-0.292;2023-05-07T05:42:27;3.08;;;0.93;;
76903;SDS011;65865;51.698;-0.292;2023-05-07T05:44:53;2.05;;;0.90;;
76903;SDS011;65865;51.698;-0.292;2023-05-07T05:47:19;2.05;;;0.98;;
76903;SDS011;65865;51.698;-0.292;2023-05-07T05:49:45;1.67;;;0.60;;
76903;SDS011;65865;51.698;-0.292;2023-05-07T05:52:11;1.60;;;0.70;;
76903;SDS011;65865;51.698;-0.292;2023-05-07T05:54:41;2.95;;;0.95;;
76903;SDS011;65865;51.698;-0.292;2023-05-07T05:59:33;2.65;;;0.80;;
76903;SDS011;65865;51.698;-0.292;2023-05-07T06:01:59;2.25;;;0.85;;
76903;SDS011;65865;51.698;-0.292;2023-05-07T06:04:25;2.17;;;0.90;;
76903;SDS011;65865;51.698;-0.292;2023-05-07T06:06:51;1.80;;;0.80;;
76903;SDS011;65865;51.698;-0.292;2023-05-07T06:09:17;2.00;;;0.80;;
76903;SDS011;65865;51.698;-0.292;2023-05-07T06:11:43;2.05;;;0.70;;
76903;SDS011;65865;51.698;-0.292;2023-05-07T06:14:09;1.77;;;0.75;;
76903;SDS011;65865;51.698;-0.292;2023-05-07T06:16:35;2.10;;;0.73;;
76903;SDS011;65865;51.698;-0.292;2023-05-07T06:19:03;1.85;;;0.73;;
76903;SDS011;65865;51.698;-0.292;2023-05-07T06:21:29;1.42;;;0.90;;
76903;SDS011;65865;51.698;-0.292;2023-05-07T06:23:56;1.60;;;0.75;;
76903;SDS011;65865;51.698;-0.292;2023-05-07T06:26:22;1.67;;;0.65;;
76903;SDS011;65865;51.698;-0.292;2023-05-07T06:28:48;1.95;;;0.80;;
76903;SDS011;65865;51.698;-0.292;2023-05-07T06:31:19;2.83;;;0.80;;
76903;SDS011;65865;51.698;-0.292;2023-05-07T06:33:46;1.75;;;0.63;;
76903;SDS011;65865;51.698;-0.292;2023-05-07T06:38:45;2.00;;;0.90;;
76903;SDS011;65865;51.698;-0.292;2023-05-07T06:41:11;1.90;;;0.63;;
76903;SDS011;65865;51.698;-0.292;2023-05-07T06:43:37;1.80;;;0.68;;
76903;SDS011;65865;51.698;-0.292;2023-05-07T06:48:41;2.05;;;0.73;;
76903;SDS011;65865;51.698;-0.292;2023-05-07T06:51:07;2.13;;;0.75;;
76903;SDS011;65865;51.698;-0.292;2023-05-07T06:53:34;1.30;;;0.60;;
76903;SDS011;65865;51.698;-0.292;2023-05-07T06:56:00;2.15;;;0.73;;
76903;SDS011;65865;51.698;-0.292;2023-05-07T06:58:26;1.63;;;0.63;;
76903;SDS011;65865;51.698;-0.292;2023-05-07T07:00:52;2.22;;;0.70;;
76903;SDS011;65865;51.698;-0.292;2023-05-07T07:03:19;4.50;;;0.73;;
76903;SDS011;65865;51.698;-0.292;2023-05-07T07:05:45;4.63;;;0.85;;
76903;SDS011;65865;51.698;-0.292;2023-05-07T07:08:11;2.10;;;0.68;;
76903;SDS011;65865;51.698;-0.292;2023-05-07T07:10:37;2.35;;;0.60;;
76903;SDS011;65865;51.698;-0.292;2023-05-07T07:13:03;2.58;;;0.63;;
76903;SDS011;65865;51.698;-0.292;2023-05-07T07:15:29;2.38;;;0.70;;
76903;SDS011;65865;51.698;-0.292;2023-05-07T07:17:55;2.63;;;0.80;;
76903;SDS011;65865;51.698;-0.292;2023-05-07T07:20:21;2.28;;;0.80;;
76903;SDS011;65865;51.698;-0.292;2023-05-07T07:22:47;2.03;;;0.60;;
76903;SDS011;65865;51.698;-0.292;2023-05-07T07:25:13;1.38;;;0.50;;
76903;SDS011;65865;51.698;-0.292;2023-05-07T07:27:39;1.83;;;0.70;;
76903;SDS011;65865;51.698;-0.292;2023-05-07T07:30:06;2.30;;;0.98;;
76903;SDS011;65865;51.698;-0.292;2023-05-07T07:32:34;3.00;;;0.73;;
76903;SDS011;65865;51.698;-0.292;2023-05-07T07:35:00;2.38;;;0.88;;
76903;SDS011;65865;51.698;-0.292;2023-05-07T07:37:26;2.47;;;1.02;;
76903;SDS011;65865;51.698;-0.292;2023-05-07T07:39:52;3.47;;;0.98;;
76903;SDS011;65865;51.698;-0.292;2023-05-07T07:42:18;2.60;;;1.10;;
76903;SDS011;65865;51.698;-0.292;2023-05-07T07:44:44;3.05;;;1.15;;
76903;SDS011;65865;51.698;-0.292;2023-05-07T07:47:10;3.03;;;1.38;;
76903;SDS011;65865;51.698;-0.292;2023-05-07T07:49:36;2.60;;;1.13;;
76903;SDS011;65865;51.698;-0.292;2023-05-07T07:52:02;4.10;;;1.42;;
76903;SDS011;65865;51.698;-0.292;2023-05-07T07:54:28;2.70;;;1.15;;
76903;SDS011;65865;51.698;-0.292;2023-05-07T07:56:55;2.97;;;1.20;;
76903;SDS011;65865;51.698;-0.292;2023-05-07T07:59:21;6.68;;;1.00;;
76903;SDS011;65865;51.698;-0.292;2023-05-07T08:01:47;2.80;;;1.10;;
76903;SDS011;65865;51.698;-0.292;2023-05-07T08:04:15;2.60;;;1.20;;
76903;SDS011;65865;51.698;-0.292;2023-05-07T08:06:41;3.03;;;1.25;;
76903;SDS011;65865;51.698;-0.292;2023-05-07T08:09:07;2.95;;;1.15;;
76903;SDS011;65865;51.698;-0.292;2023-05-07T08:11:33;2.97;;;1.20;;
76903;SDS011;65865;51.698;-0.292;2023-05-07T08:13:59;3.13;;;1.30;;
76903;SDS011;65865;51.698;-0.292;2023-05-07T08:16:25;5.18;;;1.23;;
76903;SDS011;65865;51.698;-0.292;2023-05-07T08:18:52;3.10;;;1.30;;
76903;SDS011;65865;51.698;-0.292;2023-05-07T08:21:18;3.42;;;1.50;;
76903;SDS011;65865;51.698;-0.292;2023-05-07T08:23:45;3.72;;;1.40;;
76903;SDS011;65865;51.698;-0.292;2023-05-07T08:26:11;3.90;;;1.55;;
76903;SDS011;65865;51.698;-0.292;2023-05-07T08:28:37;3.83;;;1.42;;
76903;SDS011;65865;51.698;-0.292;2023-05-07T08:31:04;3.38;;;1.50;;
76903;SDS011;65865;51.698;-0.292;2023-05-07T08:33:30;2.63;;;1.27;;
76903;SDS011;65865;51.698;-0.292;2023-05-07T08:35:56;3.78;;;1.70;;
76903;SDS011;65865;51.698;-0.292;2023-05-07T08:38:23;4.43;;;1.60;;
76903;SDS011;65865;51.698;-0.292;2023-05-07T08:40:49;3.70;;;1.50;;
76903;SDS011;65865;51.698;-0.292;2023-05-07T08:43:15;2.90;;;1.30;;
76903;SDS011;65865;51.698;-0.292;2023-05-07T08:45:42;3.58;;;1.80;;
76903;SDS011;65865;51.698;-0.292;2023-05-07T08:48:17;3.88;;;1.45;;
76903;SDS011;65865;51.698;-0.292;2023-05-07T08:50:43;3.80;;;1.52;;
76903;SDS011;65865;51.698;-0.292;2023-05-07T08:53:09;6.40;;;1.50;;
76903;SDS011;65865;51.698;-0.292;2023-05-07T08:55:35;5.80;;;1.40;;
76903;SDS011;65865;51.698;-0.292;2023-05-07T08:58:01;3.67;;;1.50;;
76903;SDS011;65865;51.698;-0.292;2023-05-07T09:00:27;2.97;;;1.20;;
76903;SDS011;65865;51.698;-0.292;2023-05-07T09:02:53;4.32;;;1.27;;
76903;SDS011;65865;51.698;-0.292;2023-05-07T09:05:19;4.78;;;1.55;;
76903;SDS011;65865;51.698;-0.292;2023-05-07T09:07:46;2.97;;;1.48;;
76903;SDS011;65865;51.698;-0.292;2023-05-07T09:10:12;4.03;;;1.30;;
76903;SDS011;65865;51.698;-0.292;2023-05-07T09:12:39;2.67;;;1.15;;
76903;SDS011;65865;51.698;-0.292;2023-05-07T09:15:05;4.50;;;1.23;;
76903;SDS011;65865;51.698;-0.292;2023-05-07T09:17:31;3.00;;;1.30;;
76903;SDS011;65865;51.698;-0.292;2023-05-07T09:20:04;2.65;;;1.02;;
76903;SDS011;65865;51.698;-0.292;2023-05-07T09:22:35;4.47;;;1.10;;
76903;SDS011;65865;51.698;-0.292;2023-05-07T09:25:02;3.03;;;1.17;;
76903;SDS011;65865;51.698;-0.292;2023-05-07T09:27:29;2.85;;;1.17;;
76903;SDS011;65865;51.698;-0.292;2023-05-07T09:29:56;3.20;;;1.30;;
76903;SDS011;65865;51.698;-0.292;2023-05-07T09:32:22;3.08;;;1.33;;
76903;SDS011;65865;51.698;-0.292;2023-05-07T09:34:48;2.60;;;1.10;;
76903;SDS011;65865;51.698;-0.292;2023-05-07T09:37:14;3.33;;;1.00;;
76903;SDS011;65865;51.698;-0.292;2023-05-07T09:39:48;2.65;;;1.10;;
76903;SDS011;65865;51.698;-0.292;2023-05-07T09:42:15;4.38;;;1.08;;
76903;SDS011;65865;51.698;-0.292;2023-05-07T09:44:41;3.13;;;1.13;;
76903;SDS011;65865;51.698;-0.292;2023-05-07T09:47:08;3.75;;;1.33;;
76903;SDS011;65865;51.698;-0.292;2023-05-07T09:49:35;3.13;;;1.42;;
76903;SDS011;65865;51.698;-0.292;2023-05-07T09:52:02;2.90;;;1.50;;
76903;SDS011;65865;51.698;-0.292;2023-05-07T09:54:28;3.17;;;1.23;;
76903;SDS011;65865;51.698;-0.292;2023-05-07T09:56:55;4.20;;;1.20;;
76903;SDS011;65865;51.698;-0.292;2023-05-07T09:59:22;2.72;;;1.17;;
76903;SDS011;65865;51.698;-0.292;2023-05-07T10:01:48;3.30;;;1.05;;
76903;SDS011;65865;51.698;-0.292;2023-05-07T10:04:14;4.53;;;1.27;;
76903;SDS011;65865;51.698;-0.292;2023-05-07T10:06:40;3.22;;;1.02;;
76903;SDS011;65865;51.698;-0.292;2023-05-07T10:09:07;2.60;;;1.10;;
76903;SDS011;65865;51.698;-0.292;2023-05-07T10:11:33;2.90;;;1.30;;
76903;SDS011;65865;51.698;-0.292;2023-05-07T10:14:00;3.33;;;1.10;;
76903;SDS011;65865;51.698;-0.292;2023-05-07T10:16:27;4.25;;;1.30;;
76903;SDS011;65865;51.698;-0.292;2023-05-07T10:18:54;2.58;;;1.20;;
76903;SDS011;65865;51.698;-0.292;2023-05-07T10:21:20;3.35;;;1.50;;
76903;SDS011;65865;51.698;-0.292;2023-05-07T10:23:50;3.80;;;1.40;;
76903;SDS011;65865;51.698;-0.292;2023-05-07T10:26:17;3.25;;;1.30;;
76903;SDS011;65865;51.698;-0.292;2023-05-07T10:28:44;5.80;;;1.40;;
76903;SDS011;65865;51.698;-0.292;2023-05-07T10:33:57;3.78;;;1.40;;
76903;SDS011;65865;51.698;-0.292;2023-05-07T10:36:24;2.35;;;1.02;;
76903;SDS011;65865;51.698;-0.292;2023-05-07T10:38:51;2.53;;;1.20;;
76903;SDS011;65865;51.698;-0.292;2023-05-07T10:41:17;5.00;;;1.20;;
76903;SDS011;65865;51.698;-0.292;2023-05-07T10:43:44;2.30;;;1.30;;
76903;SDS011;65865;51.698;-0.292;2023-05-07T10:46:20;2.70;;;1.20;;
76903;SDS011;65865;51.698;-0.292;2023-05-07T10:51:33;3.08;;;1.40;;
76903;SDS011;65865;51.698;-0.292;2023-05-07T10:56:41;5.10;;;1.40;;
76903;SDS011;65865;51.698;-0.292;2023-05-07T11:04:22;3.15;;;1.42;;
76903;SDS011;65865;51.698;-0.292;2023-05-07T11:17:32;4.05;;;1.40;;
76903;SDS011;65865;51.698;-0.292;2023-05-07T11:19:59;4.10;;;1.70;;
76903;SDS011;65865;51.698;-0.292;2023-05-07T11:25:05;6.53;;;1.50;;
76903;SDS011;65865;51.698;-0.292;2023-05-07T11:27:32;3.67;;;1.60;;
76903;SDS011;65865;51.698;-0.292;2023-05-07T11:29:58;4.75;;;1.60;;
76903;SDS011;65865;51.698;-0.292;2023-05-07T11:32:26;4.43;;;1.42;;
76903;SDS011;65865;51.698;-0.292;2023-05-07T11:34:56;3.97;;;1.52;;
76903;SDS011;65865;51.698;-0.292;2023-05-07T11:37:23;4.60;;;1.60;;
76903;SDS011;65865;51.698;-0.292;2023-05-07T11:39:49;5.85;;;1.65;;
76903;SDS011;65865;51.698;-0.292;2023-05-07T11:42:34;4.57;;;1.70;;
76903;SDS011;65865;51.698;-0.292;2023-05-07T11:45:00;3.42;;;1.38;;
76903;SDS011;65865;51.698;-0.292;2023-05-07T11:47:29;4.07;;;1.70;;
76903;SDS011;65865;51.698;-0.292;2023-05-07T11:49:55;5.22;;;1.80;;
76903;SDS011;65865;51.698;-0.292;2023-05-07T11:52:23;6.10;;;1.95;;
76903;SDS011;65865;51.698;-0.292;2023-05-07T11:54:49;3.38;;;1.80;;
76903;SDS011;65865;51.698;-0.292;2023-05-07T11:57:15;3.65;;;1.40;;
76903;SDS011;65865;51.698;-0.292;2023-05-07T11:59:42;2.67;;;1.30;;
76903;SDS011;65865;51.698;-0.292;2023-05-07T12:02:14;3.78;;;1.30;;
76903;SDS011;65865;51.698;-0.292;2023-05-07T12:04:40;4.45;;;1.63;;
76903;SDS011;65865;51.698;-0.292;2023-05-07T12:07:15;3.28;;;1.30;;
76903;SDS011;65865;51.698;-0.292;2023-05-07T12:09:43;4.32;;;1.30;;
76903;SDS011;65865;51.698;-0.292;2023-05-07T12:12:09;4.63;;;1.20;;
76903;SDS011;65865;51.698;-0.292;2023-05-07T12:14:41;8.75;;;1.60;;
76903;SDS011;65865;51.698;-0.292;2023-05-07T12:17:08;3.20;;;1.40;;
76903;SDS011;65865;51.698;-0.292;2023-05-07T12:19:34;5.68;;;1.45;;
76903;SDS011;65865;51.698;-0.292;2023-05-07T12:22:03;3.38;;;1.27;;
76903;SDS011;65865;51.698;-0.292;2023-05-07T12:24:49;3.30;;;1.40;;
76903;SDS011;65865;51.698;-0.292;2023-05-07T12:27:16;3.63;;;1.50;;
76903;SDS011;65865;51.698;-0.292;2023-05-07T12:29:49;3.38;;;1.25;;
76903;SDS011;65865;51.698;-0.292;2023-05-07T12:32:18;5.45;;;1.40;;
76903;SDS011;65865;51.698;-0.292;2023-05-07T12:34:45;2.92;;;1.30;;
76903;SDS011;65865;51.698;-0.292;2023-05-07T12:37:12;3.38;;;1.30;;
76903;SDS011;65865;51.698;-0.292;2023-05-07T12:39:44;3.85;;;1.30;;
76903;SDS011;65865;51.698;-0.292;2023-05-07T12:42:10;5.57;;;1.50;;
76903;SDS011;65865;51.698;-0.292;2023-05-07T12:44:40;3.40;;;1.40;;
76903;SDS011;65865;51.698;-0.292;2023-05-07T12:47:07;3.60;;;1.30;;
76903;SDS011;65865;51.698;-0.292;2023-05-07T12:49:34;2.75;;;1.20;;
76903;SDS011;65865;51.698;-0.292;2023-05-07T12:52:02;2.60;;;1.25;;
76903;SDS011;65865;51.698;-0.292;2023-05-07T12:54:29;4.63;;;1.25;;
76903;SDS011;65865;51.698;-0.292;2023-05-07T12:57:05;5.03;;;1.40;;
76903;SDS011;65865;51.698;-0.292;2023-05-07T12:59:35;5.95;;;1.27;;
76903;SDS011;65865;51.698;-0.292;2023-05-07T13:02:02;2.67;;;0.80;;
76903;SDS011;65865;51.698;-0.292;2023-05-07T13:04:28;2.20;;;0.80;;
76903;SDS011;65865;51.698;-0.292;2023-05-07T13:06:54;2.75;;;1.30;;
76903;SDS011;65865;51.698;-0.292;2023-05-07T13:09:20;3.25;;;1.15;;
76903;SDS011;65865;51.698;-0.292;2023-05-07T13:11:46;3.17;;;1.10;;
76903;SDS011;65865;51.698;-0.292;2023-05-07T13:14:12;2.10;;;0.90;;
76903;SDS011;65865;51.698;-0.292;2023-05-07T13:16:38;4.63;;;0.88;;
76903;SDS011;65865;51.698;-0.292;2023-05-07T13:19:04;5.07;;;1.02;;
76903;SDS011;65865;51.698;-0.292;2023-05-07T13:21:30;6.20;;;1.00;;
76903;SDS011;65865;51.698;-0.292;2023-05-07T13:23:59;2.00;;;0.65;;
76903;SDS011;65865;51.698;-0.292;2023-05-07T13:26:25;4.60;;;0.82;;
76903;SDS011;65865;51.698;-0.292;2023-05-07T13:28:52;4.95;;;0.82;;
76903;SDS011;65865;51.698;-0.292;2023-05-07T13:31:18;7.13;;;0.93;;
76903;SDS011;65865;51.698;-0.292;2023-05-07T13:33:45;7.72;;;0.93;;
76903;SDS011;65865;51.698;-0.292;2023-05-07T13:36:11;4.93;;;1.30;;
76903;SDS011;65865;51.698;-0.292;2023-05-07T13:38:38;3.50;;;1.02;;
76903;SDS011;65865;51.698;-0.292;2023-05-07T13:41:04;3.35;;;1.10;;
76903;SDS011;65865;51.698;-0.292;2023-05-07T13:43:31;5.50;;;1.25;;
76903;SDS011;65865;51.698;-0.292;2023-05-07T13:45:58;5.72;;;1.15;;
76903;SDS011;65865;51.698;-0.292;2023-05-07T13:48:24;3.55;;;0.65;;
76903;SDS011;65865;51.698;-0.292;2023-05-07T13:50:50;4.05;;;0.88;;
76903;SDS011;65865;51.698;-0.292;2023-05-07T13:53:19;3.95;;;1.10;;
76903;SDS011;65865;51.698;-0.292;2023-05-07T13:55:45;3.92;;;0.90;;
76903;SDS011;65865;51.698;-0.292;2023-05-07T13:58:11;2.85;;;0.93;;
76903;SDS011;65865;51.698;-0.292;2023-05-07T14:00:37;5.60;;;1.10;;
76903;SDS011;65865;51.698;-0.292;2023-05-07T14:03:04;3.90;;;1.13;;
76903;SDS011;65865;51.698;-0.292;2023-05-07T14:05:30;2.70;;;0.82;;
76903;SDS011;65865;51.698;-0.292;2023-05-07T14:07:57;1.73;;;0.98;;
76903;SDS011;65865;51.698;-0.292;2023-05-07T14:10:23;3.42;;;0.95;;
76903;SDS011;65865;51.698;-0.292;2023-05-07T14:12:49;1.95;;;0.73;;
76903;SDS011;65865;51.698;-0.292;2023-05-07T14:15:15;5.13;;;1.27;;
76903;SDS011;65865;51.698;-0.292;2023-05-07T14:17:42;2.55;;;0.80;;
76903;SDS011;65865;51.698;-0.292;2023-05-07T14:20:08;3.22;;;0.90;;
76903;SDS011;65865;51.698;-0.292;2023-05-07T14:22:35;2.90;;;0.80;;
76903;SDS011;65865;51.698;-0.292;2023-05-07T14:25:01;4.15;;;1.02;;
76903;SDS011;65865;51.698;-0.292;2023-05-07T14:27:27;5.82;;;1.10;;
76903;SDS011;65865;51.698;-0.292;2023-05-07T14:29:53;2.70;;;1.00;;
76903;SDS011;65865;51.698;-0.292;2023-05-07T14:32:20;2.22;;;1.05;;
76903;SDS011;65865;51.698;-0.292;2023-05-07T14:34:46;3.60;;;0.73;;
76903;SDS011;65865;51.698;-0.292;2023-05-07T14:37:12;3.00;;;1.23;;
76903;SDS011;65865;51.698;-0.292;2023-05-07T14:39:40;4.20;;;1.27;;
76903;SDS011;65865;51.698;-0.292;2023-05-07T14:42:06;6.70;;;1.10;;
76903;SDS011;65865;51.698;-0.292;2023-05-07T14:44:38;3.75;;;1.00;;
76903;SDS011;65865;51.698;-0.292;2023-05-07T14:47:06;2.90;;;1.00;;
76903;SDS011;65865;51.698;-0.292;2023-05-07T14:49:33;3.83;;;1.10;;
76903;SDS011;65865;51.698;-0.292;2023-05-07T14:51:58;3.60;;;1.38;;
76903;SDS011;65865;51.698;-0.292;2023-05-07T14:54:25;4.53;;;0.80;;
76903;SDS011;65865;51.698;-0.292;2023-05-07T14:56:51;3.78;;;1.33;;
76903;SDS011;65865;51.698;-0.292;2023-05-07T14:59:18;3.00;;;1.02;;
76903;SDS011;65865;51.698;-0.292;2023-05-07T15:01:46;3.67;;;1.10;;
76903;SDS011;65865;51.698;-0.292;2023-05-07T15:12:06;4.45;;;1.00;;
76903;SDS011;65865;51.698;-0.292;2023-05-07T15:14:32;4.40;;;0.98;;
76903;SDS011;65865;51.698;-0.292;2023-05-07T15:16:58;3.42;;;1.00;;